Time;durP1;ratioP1;P1;durP2;ratioP2;P2;SDS_P1;SDS_P2;PMS_P1;PMS_P2;Temp;Humidity;BMP_temperature;BMP_pressure;BME280_temperature;BME280_humidity;BME280_pressure;Samples;Min_cycle;Max_cycle;Signal;HPM_P1;HPM_P2
2022/12/22 03:32:21;;;;;;;2.08;1.10;;;;;;;15.72;72.41;99829.97;20634889;28;20072;-85
2022/12/22 03:52:43;;;;;;;0.93;0.80;;;;;;;15.60;72.46;99799.81;20633691;28;20069;-85
2022/12/22 04:02:44;;;;;;;0.80;0.60;;;;;;;16.02;72.40;99861.06;20624417;28;20451;-85
2022/12/22 04:12:55;;;;;;;1.13;0.90;;;;;;;16.02;72.47;99857.53;20630764;28;20046;-85
2022/12/22 04:22:57;;;;;;;1.13;0.82;;;;;;;16.02;72.37;99847.66;20631524;28;20570;-85
2022/12/22 04:32:58;;;;;;;1.23;0.88;;;;;;;15.81;72.27;99812.97;20631125;28;20058;-85
2022/12/22 04:43:00;;;;;;;1.65;0.80;;;;;;;15.99;72.43;99829.16;20631043;28;20090;-85
2022/12/22 04:53:02;;;;;;;0.80;0.80;;;;;;;15.91;72.38;99827.22;20613639;28;20069;-85
2022/12/22 05:03:03;;;;;;;1.38;0.90;;;;;;;16.03;72.22;99845.78;20621235;28;20128;-85
2022/12/22 05:13:05;;;;;;;0.68;0.63;;;;;;;16.02;72.26;99834.22;20629230;28;20074;-85
2022/12/22 05:23:07;;;;;;;0.82;0.80;;;;;;;16.02;72.33;99831.53;20638557;28;20050;-85
2022/12/22 05:33:08;;;;;;;0.85;0.77;;;;;;;16.03;72.42;99830.53;20643406;28;20116;-85
2022/12/22 05:43:10;;;;;;;0.70;0.70;;;;;;;15.85;72.40;99798.25;20643171;28;20638;-88
2022/12/22 05:53:11;;;;;;;0.88;0.68;;;;;;;16.03;72.34;99809.06;20642234;28;20113;-87
2022/12/22 06:03:13;;;;;;;0.55;0.47;;;;;;;16.02;72.29;99836.91;20633857;28;20051;-88
2022/12/22 06:13:15;;;;;;;0.40;0.40;;;;;;;15.96;72.25;99832.16;20640899;28;20081;-87
2022/12/22 06:23:16;;;;;;;0.90;0.60;;;;;;;16.03;72.46;99851.16;20613620;28;20053;-85
2022/12/22 06:33:18;;;;;;;0.73;0.52;;;;;;;16.03;72.46;99875.31;20581577;28;20087;-84
2022/12/22 06:43:20;;;;;;;1.02;0.70;;;;;;;16.03;72.21;99878.00;20494399;28;20055;-83
2022/12/22 06:53:21;;;;;;;0.52;0.52;;;;;;;16.02;72.37;99901.34;20553565;28;20495;-85
2022/12/22 07:03:23;;;;;;;0.60;0.60;;;;;;;16.03;72.25;99894.97;20541541;28;20070;-85
2022/12/22 07:13:27;;;;;;;0.60;0.50;;;;;;;16.03;72.17;99910.22;20535826;28;20035;-85
2022/12/22 07:23:29;;;;;;;0.63;0.55;;;;;;;16.03;72.30;99911.09;20582670;28;20050;-87
2022/12/22 07:33:31;;;;;;;0.95;0.70;;;;;;;16.03;72.22;99923.66;20612842;28;20050;-89
2022/12/22 07:43:32;;;;;;;2.85;0.70;;;;;;;16.02;73.49;99919.28;20603129;28;20058;-90
2022/12/22 07:53:34;;;;;;;0.98;0.70;;;;;;;16.07;74.02;99928.59;20587581;28;20073;-90
2022/12/22 08:03:35;;;;;;;3.22;0.85;;;;;;;16.11;74.03;99949.78;20589712;28;20081;-95
2022/12/22 08:13:37;;;;;;;1.85;0.77;;;;;;;16.06;75.18;99955.56;20676373;28;20050;-93
2022/12/22 08:23:38;;;;;;;1.58;0.75;;;;;;;16.11;75.26;99972.06;20654358;28;20149;-94
2022/12/22 08:33:40;;;;;;;2.25;0.80;;;;;;;15.91;75.24;99947.16;20596268;28;20058;-88
2022/12/22 08:43:41;;;;;;;2.80;0.80;;;;;;;16.07;75.56;99990.34;20558321;28;20086;-87
2022/12/22 08:53:43;;;;;;;0.70;0.60;;;;;;;16.07;75.43;99990.34;20595585;28;20054;-85
2022/12/22 09:04:08;;;;;;;2.92;0.98;;;;;;;15.95;75.29;99981.59;20613886;28;20046;-86
2022/12/22 09:14:10;;;;;;;1.57;0.60;;;;;;;15.85;75.15;99971.84;20529941;28;20043;-88
2022/12/22 09:24:11;;;;;;;1.17;0.85;;;;;;;16.05;75.29;100019.16;20541064;28;20129;-89
2022/12/22 09:34:13;;;;;;;1.17;0.75;;;;;;;16.03;75.16;100029.22;20504867;28;20047;-85
2022/12/22 09:44:37;;;;;;;1.42;0.85;;;;;;;16.03;75.11;100041.78;20490412;28;20139;-87
2022/12/22 09:54:40;;;;;;;1.10;0.63;;;;;;;16.03;75.03;100053.38;20506863;28;20058;-91
2022/12/22 10:04:56;;;;;;;1.23;0.75;;;;;;;16.02;75.09;100049.00;20519634;28;20108;-90
2022/12/22 10:14:57;;;;;;;2.08;0.80;;;;;;;16.02;75.16;100067.78;20615273;28;20499;-90
2022/12/22 10:25:00;;;;;;;1.73;0.77;;;;;;;15.71;75.19;100022.31;20608641;28;20542;-91
2022/12/22 10:35:05;;;;;;;2.35;0.95;;;;;;;16.03;75.23;100080.22;20583438;28;20055;-90
2022/12/22 10:45:16;;;;;;;4.37;1.30;;;;;;;15.87;75.20;100064.66;20506541;28;20051;-89
2022/12/22 10:55:21;;;;;;;2.55;1.63;;;;;;;15.77;75.27;100037.00;20525225;28;20408;-89
2022/12/22 11:05:23;;;;;;;;;;;;;;;16.04;75.24;100094.47;20486321;28;20050;-86
2022/12/22 11:15:33;;;;;;;3.53;1.13;;;;;;;16.03;75.29;100093.66;20515323;28;20591;-87
2022/12/22 11:26:00;;;;;;;1.48;1.08;;;;;;;16.03;75.51;100117.81;20506766;28;20102;-87
2022/12/22 11:36:05;;;;;;;2.80;1.15;;;;;;;16.02;75.39;100121.50;20568582;28;20078;-86
2022/12/22 11:46:23;;;;;;;4.57;1.67;;;;;;;16.04;75.47;100111.44;20572330;28;20149;-86
2022/12/22 11:56:31;;;;;;;1.88;1.17;;;;;;;16.04;75.50;100115.97;20521709;28;20062;-90
2022/12/22 12:06:55;;;;;;;1.77;1.05;;;;;;;16.06;75.41;100125.56;20557718;28;20062;-89
2022/12/22 12:17:14;;;;;;;2.10;1.00;;;;;;;16.05;75.40;100113.16;20544148;28;1170831;-89
2022/12/22 12:27:35;;;;;;;2.00;1.00;;;;;;;16.05;75.40;100115.81;20548779;28;20654;-86
2022/12/22 12:37:37;;;;;;;1.40;0.93;;;;;;;16.06;75.42;100120.22;20576924;28;20058;-86
2022/12/22 12:47:40;;;;;;;1.17;0.80;;;;;;;16.06;75.43;100109.47;20585492;28;20058;-86
2022/12/22 12:57:46;;;;;;;1.42;0.85;;;;;;;15.90;75.34;100090.41;20592184;28;20051;-86
2022/12/22 13:08:06;;;;;;;1.40;0.65;;;;;;;16.06;75.39;100114.84;20586782;28;20054;-85
2022/12/22 13:18:28;;;;;;;1.00;0.80;;;;;;;16.06;75.23;100117.53;20591644;28;20051;-87
2022/12/22 13:28:29;;;;;;;1.17;0.77;;;;;;;16.06;75.52;100128.25;20604545;28;20133;-88
2022/12/22 13:38:36;;;;;;;1.80;0.82;;;;;;;16.05;75.30;100123.88;20581285;28;20117;-87
2022/12/22 13:48:43;;;;;;;1.05;0.70;;;;;;;15.93;75.72;100107.06;20588639;28;20055;-85
2022/12/22 13:58:51;;;;;;;0.85;0.57;;;;;;;15.87;75.34;100098.69;20588176;28;20039;-87
2022/12/22 14:08:52;;;;;;;1.92;0.85;;;;;;;15.97;75.25;100104.97;20569743;28;20046;-88
2022/12/22 14:18:54;;;;;;;0.93;0.75;;;;;;;15.95;75.36;100125.75;20608068;28;20612;-87
2022/12/22 14:28:56;;;;;;;2.17;0.75;;;;;;;15.86;75.43;100122.03;20612446;28;20581;-88
2022/12/22 14:38:58;;;;;;;1.20;0.70;;;;;;;15.88;75.35;100120.09;20532764;28;20058;-86
2022/12/22 14:49:12;;;;;;;1.63;1.00;;;;;;;16.07;75.21;100138.00;20531491;28;20051;-86
2022/12/22 14:59:24;;;;;;;0.70;0.60;;;;;;;16.06;75.51;100133.63;20596560;28;20061;-87
2022/12/22 15:09:26;;;;;;;0.60;0.60;;;;;;;16.06;75.21;100125.56;20604825;28;20133;-85
2022/12/22 15:19:49;;;;;;;0.70;0.47;;;;;;;16.05;75.40;100129.25;20581730;28;20050;-85
2022/12/22 15:29:50;;;;;;;1.05;0.70;;;;;;;15.94;75.47;100111.47;20570326;28;20057;-88
2022/12/22 15:39:52;;;;;;;0.55;0.55;;;;;;;16.06;75.66;100135.47;20602485;28;20399;-90
2022/12/22 15:49:53;;;;;;;1.38;0.60;;;;;;;15.94;75.57;100113.31;20579845;28;20086;-88
2022/12/22 15:59:55;;;;;;;1.17;0.55;;;;;;;15.63;75.61;100054.38;20582011;28;20046;-88
2022/12/22 16:09:57;;;;;;;1.75;0.70;;;;;;;16.04;75.61;100130.25;20576316;28;20133;-87
2022/12/22 16:19:59;;;;;;;1.80;0.88;;;;;;;15.74;75.54;100083.75;20561702;28;20104;-87
2022/12/22 16:30:00;;;;;;;1.55;1.10;;;;;;;16.04;75.84;100111.44;20556924;28;20054;-88
2022/12/22 16:40:04;;;;;;;2.08;0.82;;;;;;;16.05;76.09;100114.97;20561228;28;20065;-91
2022/12/22 16:50:15;;;;;;;1.92;0.90;;;;;;;16.05;76.03;100102.41;20586608;28;20503;-87
2022/12/22 17:00:20;;;;;;;1.95;1.10;;;;;;;16.04;76.03;100100.72;20575342;28;20039;-87
2022/12/22 17:10:22;;;;;;;3.00;1.00;;;;;;;15.65;76.02;100030.94;20585224;28;20102;-88
2022/12/22 17:20:27;;;;;;;1.77;0.75;;;;;;;15.74;76.19;100051.53;20607779;28;20143;-87
2022/12/22 17:30:28;;;;;;;1.97;0.80;;;;;;;16.03;76.00;100074.00;20600371;28;20047;-88
2022/12/22 17:40:30;;;;;;;2.53;1.10;;;;;;;16.04;76.31;100064.94;20592763;28;20400;-84
2022/12/22 17:50:31;;;;;;;2.28;1.00;;;;;;;16.03;76.36;100045.31;20571636;28;20053;-84
2022/12/22 18:00:33;;;;;;;2.58;0.95;;;;;;;16.03;76.24;100031.91;20590464;28;20558;-86
2022/12/22 18:10:38;;;;;;;3.15;1.13;;;;;;;16.04;76.64;100020.16;20599727;28;20189;-86
2022/12/22 18:20:40;;;;;;;2.08;1.08;;;;;;;15.94;76.46;99997.88;20582163;28;20046;-84
2022/12/22 18:30:43;;;;;;;2.25;0.90;;;;;;;16.03;76.42;100002.38;20607143;28;20077;-84
2022/12/22 18:40:46;;;;;;;2.30;1.17;;;;;;;16.00;76.40;99991.91;20602804;28;20051;-84
2022/12/22 18:50:47;;;;;;;2.45;1.00;;;;;;;15.28;76.63;99868.06;20556829;28;20062;-84
2022/12/22 19:00:50;;;;;;;2.38;1.23;;;;;;;16.03;76.56;99970.16;20556452;28;20134;-84
2022/12/22 19:10:59;;;;;;;2.33;1.17;;;;;;;16.01;76.52;99961.41;20538358;28;20050;-86
2022/12/22 19:21:01;;;;;;;2.70;1.25;;;;;;;16.02;76.40;99957.72;20537529;28;20050;-84
2022/12/22 19:31:04;;;;;;;1.85;1.00;;;;;;;16.02;76.43;99946.97;20553705;28;20101;-84
2022/12/22 19:41:20;;;;;;;3.13;1.10;;;;;;;15.94;76.22;99917.34;20590786;28;20050;-85
2022/12/22 19:51:22;;;;;;;1.30;1.00;;;;;;;15.75;76.34;99880.66;20601276;28;20053;-84
2022/12/22 20:01:23;;;;;;;2.15;0.98;;;;;;;16.01;76.07;99918.44;20613625;28;20046;-85
2022/12/22 20:11:25;;;;;;;1.48;1.08;;;;;;;15.79;76.18;99882.06;20613669;28;20101;-85
2022/12/22 20:21:28;;;;;;;1.70;0.95;;;;;;;16.00;76.24;99911.38;20597576;28;20050;-86
2022/12/22 20:31:29;;;;;;;2.40;1.23;;;;;;;16.01;76.24;99906.84;20629378;28;20085;-87
2022/12/22 20:41:31;;;;;;;2.47;1.00;;;;;;;16.01;76.09;99896.09;20621281;28;20050;-85
2022/12/22 20:51:32;;;;;;;1.58;1.02;;;;;;;15.81;76.22;99854.06;20634556;28;20054;-84
2022/12/22 21:01:34;;;;;;;1.92;1.23;;;;;;;15.99;75.97;99874.78;20645865;28;20054;-85
2022/12/22 21:11:36;;;;;;;1.30;0.95;;;;;;;15.99;75.98;99882.84;20644913;28;20050;-84
2022/12/22 21:21:37;;;;;;;2.40;1.17;;;;;;;16.00;76.07;99859.50;20626897;28;20046;-84
2022/12/22 21:31:39;;;;;;;2.35;1.10;;;;;;;15.78;76.33;99843.63;20643200;28;20562;-84
2022/12/22 21:41:58;;;;;;;2.10;1.10;;;;;;;15.89;76.22;99852.50;20626817;28;20050;-84
2022/12/22 21:52:00;;;;;;;2.00;1.20;;;;;;;15.85;76.12;99833.16;20643186;28;20057;-84
2022/12/22 22:02:01;;;;;;;1.67;1.00;;;;;;;15.99;76.15;99866.75;20641829;28;20503;-84
2022/12/22 22:22:28;;;;;;;1.90;0.93;;;;;;;15.97;75.66;99843.72;20546224;28;20067;-85
2022/12/22 22:32:30;;;;;;;1.52;1.02;;;;;;;15.97;75.87;99863.38;20559093;28;20050;-85
2022/12/22 22:42:31;;;;;;;1.83;0.98;;;;;;;15.67;75.84;99803.56;20546712;28;20058;-85
2022/12/22 22:52:34;;;;;;;1.63;0.90;;;;;;;15.96;75.79;99848.25;20479178;28;20051;-85
2022/12/22 23:02:36;;;;;;;2.13;1.10;;;;;;;15.97;75.87;99851.75;20538004;28;20045;-85
2022/12/22 23:12:38;;;;;;;1.35;1.02;;;;;;;15.96;75.82;99842.88;20556133;28;20057;-84
2022/12/22 23:22:39;;;;;;;2.67;1.45;;;;;;;15.79;75.76;99806.91;20554229;28;20102;-84
2022/12/22 23:32:41;;;;;;;1.90;1.17;;;;;;;15.97;75.93;99830.28;20586453;28;20042;-84
2022/12/22 23:42:42;;;;;;;1.50;1.10;;;;;;;15.97;75.87;99847.25;20633149;28;20046;-84
2022/12/22 23:52:44;;;;;;;1.30;1.10;;;;;;;15.97;75.79;99846.41;20632506;28;20058;-84
